Slide Mountain Weather observations

Data are for 10 minute period ending at time listed.
 Day   Time   Solar   Ave.   Ave.  Ave.  Vector  Max.    Baro.  
  of    of     Rad.   Air    Rel.  Wind   Wind   Wind   Press.  
Year   Day            Temp.  Hum.  Speed  Dir.   Gust           
2016   (PST)  Kw/m2    F      %     mph   deg.    mph     mb.   
-----------------------------------------------------------------
 341    4:50   0.00   16.5    27   50.4   271     65.4    701.1 
 341    5:00   0.00   16.6    25   47.5   272     64.8    701.2 
 341    5:10   0.00   16.5    30   46.9   272     67.8    701.3 
 341    5:20   0.00   16.0    35   39.4   275     54.6    701.5 
 341    5:30   0.00   16.0    36   43.6   275     57.1    701.3 
 341    5:40   0.00   16.0    37   42.8   274     58.0    701.3 
 341    5:50   0.00   16.1    35   45.0   273     61.0    701.2 
 341    6:00   0.00   15.8    35   44.7   273     66.6    701.2 
 341    6:10   0.00   15.5    38   46.4   275     63.0    701.0 
 341    6:20   0.00   15.3    41   47.8   273     61.0    700.9 
 341    6:30   0.00   15.1    39   48.6   272     61.1    700.8 
 341    6:40   0.00   14.6    41   50.2   272     66.1    700.6 
 341    6:50   0.00   14.6    39   47.4   273     61.3    700.6 
 341    7:00   0.00   14.7    36   45.5   274     58.7    700.7 
 341    7:10   0.01   15.3    34   44.0   277     63.3    700.6 
 341    7:20   0.01   15.1    35   44.4   278     60.9    700.7 
 341    7:30   0.03   15.2    35   43.9   277     64.4    700.8 
 341    7:40   0.05   14.9    39   37.0   275     54.9    701.0 
 341    7:50   0.08   15.2    37   37.7   276     53.5    701.0 
 341    8:00   0.11   14.7    43   33.4   274     49.2    701.3 
 341    8:10   0.14   14.5    44   32.0   273     44.7    701.3 
 341    8:20   0.16   14.4    45   33.0   268     45.1    701.3 
 341    8:30   0.18   14.7    44   35.8   270     47.4    701.2 
 341    8:40   0.20   15.2    43   35.0   272     47.8    701.3 
 341    8:50   0.22   15.5    43   34.4   276     57.2    701.3 
 341    9:00   0.24   16.4    36   37.8   278     63.6    701.5 
 341    9:10   0.26   16.7    37   34.4   283     52.6    701.9 
 341    9:20   0.28   16.7    40   29.5   278     49.5    702.2 
 341    9:30   0.30   17.2    40   28.0   280     48.2    702.3 
 341    9:40   0.32   17.4    43   27.5   274     47.0    702.4 
 341    9:50   0.34   17.6    43   28.7   277     43.7    702.5 
 341   10:00   0.35   17.5    41   31.8   279     48.8    702.4 
 341   10:10   0.36   17.7    38   33.5   271     48.7    702.3 
 341   10:20   0.38   18.0    37   29.9   277     43.8    702.5 
 341   10:30   0.39   18.2    38   28.3   273     42.5    702.5 
 341   10:40   0.40   18.1    41   26.6   275     44.3    702.6 
 341   10:50   0.41   18.2    48   22.4   276     36.3    702.7 
 341   11:00   0.42   19.2    53   14.5   266     22.0    702.9 
 341   11:10   0.42   19.8    58   13.9   254     26.1    702.9 
 341   11:20   0.44   19.9    61   14.6   259     25.8    702.9 
 341   11:30   0.46   19.5    63   15.8   270     33.0    702.8 
 341   11:40   0.43   17.2    69   23.8   270     36.5    702.6 
 341   11:50   0.40   17.8    71   19.6   270     37.8    702.6 
 341   12:00   0.50   18.6    71   17.8   261     28.3    702.5 
 341   12:10   0.56   18.4    72   25.0   264     39.2    702.2 
 341   12:20   0.24   17.1    76   21.1   274     34.1    702.2 
 341   12:30   0.19   15.4    80   27.0   271     42.7    701.8 
 341   12:40   0.21   15.2    83   27.5   271     41.9    701.6 
 341   12:50   0.32   15.5    81   30.0   267     42.7    701.5 
 341   13:00   0.17   15.5    81   28.9   272     44.0    701.3 
 341   13:10   0.13   14.1    86   33.6   272     47.2    701.2 
 341   13:20   0.14   13.8    86   37.2   271     51.8    701.1 
 341   13:30   0.19   14.0    82   39.8   267     58.0    701.1 
 341   13:40   0.18   14.1    83   39.7   270     60.2    701.2 
 341   13:50   0.10   13.5    90   36.3   267     53.4    701.4 
 341   14:00   0.14   13.3    91   37.0   270     50.2    701.2 
 341   14:10   0.15   13.3    92   33.7   272     47.7    701.3 
 341   14:20   0.15   13.6    91   27.6   264     43.5    701.5 
 341   14:30   0.11   13.5    92   25.0   268     36.6    701.6 
 341   14:40   0.19   13.8    91   25.4   267     42.3    701.8 
 341   14:50   0.10   13.2    91   29.2   270     41.5    701.8 
 341   15:00   0.07   13.0    92   25.4   270     36.4    702.0 
 341   15:10   0.04   12.8    91   26.6   269     40.1    702.1 
 341   15:20   0.03   12.6    92   24.4   268     36.8    702.3 
 341   15:30   0.03   12.8    92   23.0   263     33.9    702.3 
 341   15:40   0.02   12.6    92   22.5   266     40.0    702.4 
 341   15:50   0.01   12.7    92   20.3   263     36.0    702.5 
 341   16:00   0.01   12.5    91   21.3   270     33.8    702.6 
 341   16:10   0.01   12.5    91   18.7   266     31.7    702.7 
 341   16:20   0.00   12.3    91   20.5   268     33.3    702.7 
 341   16:30   0.00   12.3    91   15.8   293     25.8    702.8 
 341   16:40   0.00   11.8    91   13.1   301     26.9    703.0 
 341   16:50   0.00   11.7    91   16.6   298     30.7    702.9 
 341   17:00   0.00   12.0    91   13.4   277     24.0    703.1 
 341   17:10   0.00   12.2    91   14.8   270     25.1    703.3 
 341   17:20   0.00   12.0    91   11.4   299     21.7    703.3 
 341   17:30   0.00   11.5    91   11.5   306     27.8    703.4 
 341   17:40   0.00   11.3    91    9.1   291     16.2    703.4 
 341   17:50   0.00   10.9    91   10.5   317     21.5    703.5 
 341   18:00   0.00   11.4    91    8.7   288     22.0    703.6 
 341   18:10   0.00   11.8    91    9.7   289     19.4    703.7 
 341   18:20   0.00   11.8    91    9.6   286     18.6    703.7 
 341   18:30   0.00   11.2    91    9.1   284     19.8    703.8 
 341   18:40   0.00   11.5    91    4.1    89     12.8    703.9 
 341   18:50   0.00   11.9    91    0.8   190      5.2    704.0 
 341   19:00   0.00   12.0    91    2.9   297     10.6    704.0 
 341   19:10   0.00   12.1    91    1.1   352      3.8    704.1 
 341   19:20   0.00   11.9    91    1.7   271      5.1    704.1 
 341   19:30   0.00   12.0    91    0.5   268      4.0    704.2 
 341   19:40   0.00   12.0    91    0.6   317      3.4    704.3 
 341   19:50   0.00   11.2    90    4.8   312      8.9    704.4 
 341   20:00   0.00   10.8    90    6.1   308     11.4    704.4 
 341   20:10   0.00   10.6    90    5.9   298     10.7    704.4 
 341   20:20   0.00   10.2    90    7.5   293     12.1    704.5 
 341   20:30   0.00    9.7    90    6.5   306      9.7    704.6 
 341   20:40   0.00    9.5    90    4.3   301      7.2    704.7 
 341   20:50   0.00    9.5    90    3.5   303      5.9    704.7 
 341   21:00   0.00    9.0    90    4.3   291      7.9    704.8 
 341   21:10   0.00    8.7    90    4.1   288      6.9    704.8 
 341   21:20   0.00    8.5    90    2.7   279      5.8    704.8 
 341   21:30   0.00    8.3    89    3.1   265      5.6    704.9 
 341   21:40   0.00    8.2    89    0.8   264      3.0    704.9 
 341   21:50   0.00    8.3    90    0.1   261      0.1    704.9 
 341   22:00   0.00    8.3    90    0.1   238      0.1    705.0 
 341   22:10   0.00    8.2    89    0.6   229      2.4    705.1 
 341   22:20   0.00    8.0    89    0.7   236      3.3    705.1 
 341   22:30   0.00    8.1    90    1.8   245      5.4    705.2 
 341   22:40   0.00    8.5    90    0.3   230      2.8    705.3 
 341   22:50   0.00    8.5    90    1.5   216      4.9    705.3 
 341   23:00   0.00    8.5    90    3.7   219      6.1    705.3 
 341   23:10   0.00    8.7    90    3.2   206      5.2    705.4 
 341   23:20   0.00    8.4    90    3.2   228      5.1    705.4 
 341   23:30   0.00    8.5    90    3.6   235      6.2    705.5 
 341   23:40   0.00    8.8    90    2.9   213      4.6    705.5 
 341   23:50   0.00    9.3    90    6.2   226     13.9    705.6 
 342    0:00   0.00    9.4    90    7.3   236     10.6    705.7 
 342    0:10   0.00    9.8    90    4.3   226      8.8    705.8 
 342    0:20   0.00    9.9    90    4.2   226      9.7    705.8 
 342    0:30   0.00    9.9    90    3.1   222      5.9    705.9 
 342    0:40   0.00    9.8    90    3.0   228      8.8    705.9 
 342    0:50   0.00    9.7    90    4.8   232      8.3    705.9 
 342    1:00   0.00    9.6    90    4.3   228      7.6    705.9 
 342    1:10   0.00    9.4    90    4.2   229      6.4    705.9 
 342    1:20   0.00    9.8    90    4.2   234      7.9    706.0 
 342    1:30   0.00    9.6    90    2.3   215      4.9    706.1 
 342    1:40   0.00   10.0    90    2.8   194      4.0    706.1 
 342    1:50   0.00   10.4    91    4.2   202      6.3    706.2 
 342    2:00   0.00   10.4    90    4.6   217      6.1    706.2 
 342    2:10   0.00   10.4    90    3.7   207      5.4    706.3 
 342    2:20   0.00   10.2    90    4.1   215      5.6    706.3 
 342    2:30   0.00   10.1    90    3.9   221      5.8    706.3 
 342    2:40   0.00   10.3    91    3.3   215      4.8    706.2 
 342    2:50   0.00   10.5    90    2.1   219      3.7    706.2 
 342    3:00   0.00   10.4    90    1.2   214      2.9    706.2 
 342    3:10   0.00   10.4    90    1.5   236      7.0    706.2 
 342    3:20   0.00    9.9    90    6.5   242      9.7    706.2 
 342    3:30   0.00   10.1    90    5.8   240      8.6    706.2 
 342    3:40   0.00   10.3    89    6.0   242      9.0    706.1 
 342    3:50   0.00   10.6    88    6.2   244      8.3    706.2 
 342    4:00   0.00   10.6    88    7.7   247     10.6    706.2 
 342    4:10   0.00   11.2    86    8.4   255     10.6    706.2 
 342    4:20   0.00   11.7    75    8.8   255     10.8    706.2 
 342    4:30   0.00   12.1    64    8.7   256     11.2    706.2 
 342    4:40   0.00   12.4    58    9.4   258     11.4    706.3 

Return to Slide Mountain graphs page.


Western Regional Climate Center,wrcc@dri.edu